createdAt,value
2022-10-17T00:00:31.037Z,12.03
2022-10-17T00:02:58.136Z,11.98
2022-10-17T00:05:25.188Z,12.00
2022-10-17T00:07:53.103Z,11.96
2022-10-17T00:10:20.526Z,11.95
2022-10-17T00:12:47.345Z,11.95
2022-10-17T00:15:18.781Z,11.92
2022-10-17T00:17:45.799Z,11.85
2022-10-17T00:20:13.093Z,11.91
2022-10-17T00:22:39.802Z,11.87
2022-10-17T00:25:06.985Z,11.83
2022-10-17T00:27:38.124Z,11.85
2022-10-17T00:30:07.325Z,11.82
2022-10-17T00:32:34.021Z,11.82
2022-10-17T00:35:00.615Z,11.85
2022-10-17T00:37:27.421Z,11.89
2022-10-17T00:39:54.279Z,11.89
2022-10-17T00:42:21.121Z,11.87
2022-10-17T00:45:03.377Z,11.78
2022-10-17T00:47:31.150Z,11.87
2022-10-17T00:49:59.116Z,11.87
2022-10-17T00:52:29.180Z,11.95
2022-10-17T00:55:01.465Z,11.98
2022-10-17T00:57:31.668Z,11.85
2022-10-17T01:00:00.618Z,11.85
2022-10-17T01:02:27.669Z,11.84
2022-10-17T01:04:56.946Z,11.84
2022-10-17T01:07:23.713Z,11.89
2022-10-17T01:09:50.690Z,11.86
2022-10-17T01:12:29.488Z,11.88
2022-10-17T01:15:55.231Z,11.86
2022-10-17T01:18:42.656Z,11.90
2022-10-17T01:21:34.779Z,11.89
2022-10-17T01:25:08.883Z,11.91
2022-10-17T01:30:59.801Z,11.86
2022-10-17T01:33:51.331Z,11.85
2022-10-17T01:36:43.414Z,11.74
2022-10-17T01:39:46.990Z,11.72
2022-10-17T01:42:33.599Z,11.64
2022-10-17T01:45:12.095Z,11.63
2022-10-17T01:50:37.374Z,11.58
2022-10-17T01:53:10.916Z,11.51
2022-10-17T01:55:41.557Z,11.43
2022-10-17T01:58:13.519Z,11.30
2022-10-17T02:00:43.078Z,11.28
2022-10-17T02:03:14.202Z,11.24
2022-10-17T02:05:42.775Z,11.27
2022-10-17T02:08:09.462Z,11.22
2022-10-17T02:10:45.241Z,11.23
2022-10-17T02:13:56.543Z,11.18
2022-10-17T02:16:45.074Z,11.17
2022-10-17T02:19:18.019Z,11.11
2022-10-17T02:22:15.047Z,11.03
2022-10-17T02:25:14.010Z,10.98
2022-10-17T02:27:59.155Z,10.90
2022-10-17T02:30:56.800Z,10.79
2022-10-17T02:33:37.699Z,10.75
2022-10-17T02:36:10.971Z,10.69
2022-10-17T02:38:39.390Z,10.70
2022-10-17T02:41:08.660Z,10.61
2022-10-17T02:43:37.114Z,10.52
2022-10-17T02:46:04.740Z,10.46
2022-10-17T02:48:40.590Z,10.52
2022-10-17T02:51:30.949Z,10.50
2022-10-17T02:54:28.312Z,10.50
2022-10-17T02:57:09.013Z,10.48
2022-10-17T02:59:37.770Z,10.51
2022-10-17T03:02:05.942Z,10.41
2022-10-17T03:04:33.605Z,10.32
2022-10-17T03:07:00.182Z,10.31
2022-10-17T03:09:26.751Z,10.28
2022-10-17T03:11:53.492Z,10.29
2022-10-17T03:14:20.122Z,10.29
2022-10-17T03:16:47.120Z,10.27
2022-10-17T03:19:13.722Z,10.31
2022-10-17T03:21:40.351Z,10.34
2022-10-17T03:24:07.497Z,10.32
2022-10-17T03:26:34.146Z,10.31
2022-10-17T03:29:01.002Z,10.24
2022-10-17T03:31:27.570Z,10.22
2022-10-17T03:33:54.170Z,10.20
2022-10-17T03:36:21.192Z,10.19
2022-10-17T03:38:48.307Z,10.20
2022-10-17T03:41:15.267Z,10.24
2022-10-17T03:43:42.195Z,10.18
2022-10-17T03:46:08.882Z,10.17
2022-10-17T03:48:35.698Z,10.13
2022-10-17T03:51:08.382Z,10.13
2022-10-17T03:53:35.655Z,10.12
2022-10-17T03:56:17.519Z,10.09
2022-10-17T03:58:44.846Z,10.09
2022-10-17T04:01:13.995Z,10.08
2022-10-17T04:03:41.688Z,10.04
2022-10-17T04:06:10.979Z,10.04
2022-10-17T04:08:37.575Z,10.02
2022-10-17T04:11:07.486Z,10.12
2022-10-17T04:13:34.762Z,10.04
2022-10-17T04:16:04.777Z,9.98
2022-10-17T04:18:31.691Z,9.95
2022-10-17T04:20:58.309Z,9.94
2022-10-17T04:23:26.515Z,9.89
2022-10-17T04:25:59.361Z,9.85
2022-10-17T04:28:27.206Z,9.89
2022-10-17T04:31:02.438Z,9.86
2022-10-17T04:33:29.732Z,9.81
2022-10-17T04:35:59.657Z,9.87
2022-10-17T04:38:28.599Z,9.78
2022-10-17T04:40:58.262Z,9.75
2022-10-17T04:43:24.882Z,9.74
2022-10-17T04:45:51.547Z,9.82
2022-10-17T04:48:18.082Z,9.85
2022-10-17T04:51:00.000Z,9.96
2022-10-17T04:53:27.378Z,10.05
2022-10-17T04:55:54.581Z,10.11
2022-10-17T04:58:22.364Z,10.18
2022-10-17T05:00:49.364Z,10.21
2022-10-17T05:03:16.326Z,10.25
2022-10-17T05:05:43.287Z,10.22
2022-10-17T05:08:11.172Z,10.22
2022-10-17T05:10:39.472Z,10.24
2022-10-17T05:13:06.568Z,10.25
2022-10-17T05:15:33.525Z,10.23
2022-10-17T05:18:00.191Z,10.28
2022-10-17T05:20:27.654Z,10.29
2022-10-17T05:22:54.615Z,10.28
2022-10-17T05:25:21.935Z,10.32
2022-10-17T05:27:48.538Z,10.31
2022-10-17T05:30:15.134Z,10.23
2022-10-17T05:32:41.966Z,10.24
2022-10-17T05:35:08.679Z,10.26
2022-10-17T05:37:35.414Z,10.28
2022-10-17T05:40:02.223Z,10.25
2022-10-17T05:42:29.130Z,10.33
2022-10-17T05:44:56.018Z,10.24
2022-10-17T05:47:22.597Z,10.23
2022-10-17T05:49:52.216Z,10.27
2022-10-17T05:52:19.290Z,10.23
2022-10-17T05:54:46.016Z,10.29
2022-10-17T05:57:12.799Z,10.32
2022-10-17T05:59:39.412Z,10.34
2022-10-17T06:02:06.681Z,10.42
2022-10-17T06:04:33.574Z,10.52
2022-10-17T06:07:00.204Z,10.52
2022-10-17T06:09:27.021Z,10.63
2022-10-17T06:11:53.614Z,10.70
2022-10-17T06:14:20.395Z,10.70
2022-10-17T06:16:46.990Z,10.71
2022-10-17T06:19:13.585Z,10.69
2022-10-17T06:21:40.222Z,10.73
2022-10-17T06:24:06.805Z,10.75
2022-10-17T06:26:33.398Z,10.80
2022-10-17T06:29:00.028Z,10.76
2022-10-17T06:31:26.705Z,10.83
2022-10-17T06:33:53.315Z,10.85
2022-10-17T06:36:20.075Z,10.92
2022-10-17T06:38:47.018Z,10.98
2022-10-17T06:41:18.561Z,11.03
2022-10-17T06:43:46.744Z,11.07
2022-10-17T06:46:18.337Z,11.05
2022-10-17T06:48:45.559Z,11.11
2022-10-17T06:51:12.406Z,11.16
2022-10-17T06:53:40.420Z,11.24
2022-10-17T06:56:08.739Z,11.26
2022-10-17T06:58:39.099Z,11.29
2022-10-17T07:01:11.699Z,11.35
2022-10-17T07:03:39.618Z,11.36
2022-10-17T07:06:06.796Z,11.43
2022-10-17T07:08:33.386Z,11.46
2022-10-17T07:11:08.366Z,11.52
2022-10-17T07:13:38.923Z,11.54
2022-10-17T07:16:06.825Z,11.62
2022-10-17T07:18:33.823Z,11.70
2022-10-17T07:21:00.639Z,11.72
2022-10-17T07:23:27.723Z,11.75
2022-10-17T07:26:00.484Z,11.76
2022-10-17T07:28:28.097Z,11.83
2022-10-17T07:30:55.217Z,11.85
2022-10-17T07:33:21.893Z,11.96
2022-10-17T07:35:48.546Z,11.93
2022-10-17T07:38:15.134Z,11.91
2022-10-17T07:40:41.776Z,12.00
2022-10-17T07:43:08.360Z,12.05
2022-10-17T07:45:34.930Z,12.13
2022-10-17T07:48:01.780Z,12.20
2022-10-17T07:50:29.198Z,12.27
2022-10-17T07:52:55.790Z,12.36
2022-10-17T07:55:22.414Z,12.39
2022-10-17T07:57:49.122Z,12.47
2022-10-17T08:00:15.885Z,12.57
2022-10-17T08:02:42.509Z,12.63
2022-10-17T08:05:09.413Z,12.63
2022-10-17T08:07:35.992Z,12.65
2022-10-17T08:10:02.941Z,12.73
2022-10-17T08:12:32.628Z,12.77
2022-10-17T08:14:59.714Z,12.81
2022-10-17T08:17:26.521Z,12.88
2022-10-17T08:19:53.117Z,12.89
2022-10-17T08:22:19.745Z,12.92
2022-10-17T08:24:46.653Z,12.96
2022-10-17T08:27:13.808Z,12.92
2022-10-17T08:29:40.897Z,12.94
2022-10-17T08:32:10.003Z,13.02
2022-10-17T08:34:36.831Z,13.03
2022-10-17T08:37:03.544Z,13.02
2022-10-17T08:39:30.202Z,13.07
2022-10-17T08:42:11.051Z,13.12
2022-10-17T08:45:21.001Z,13.15
2022-10-17T08:47:56.614Z,13.13
2022-10-17T08:50:55.111Z,13.17
2022-10-17T08:53:29.488Z,13.16
2022-10-17T08:55:56.702Z,13.19
2022-10-17T08:58:27.976Z,13.24
2022-10-17T09:01:13.744Z,13.20
2022-10-17T09:04:22.116Z,13.32
2022-10-17T09:07:27.978Z,13.37
2022-10-17T09:10:09.478Z,13.41
2022-10-17T09:13:05.415Z,13.39
2022-10-17T09:15:56.970Z,13.47
2022-10-17T09:18:36.525Z,13.50
2022-10-17T09:21:50.016Z,13.59
2022-10-17T09:24:25.285Z,13.62
2022-10-17T09:26:54.639Z,13.62
2022-10-17T09:29:28.641Z,13.53
2022-10-17T09:32:11.296Z,13.58
2022-10-17T09:34:38.091Z,13.68
2022-10-17T09:37:14.298Z,13.71
2022-10-17T09:39:42.286Z,13.77
2022-10-17T09:42:14.675Z,13.85
2022-10-17T09:44:47.806Z,13.93
2022-10-17T09:47:39.242Z,13.96
2022-10-17T09:50:15.660Z,13.88
2022-10-17T09:52:48.899Z,13.85
2022-10-17T09:55:34.100Z,13.91
2022-10-17T09:58:06.235Z,13.96
2022-10-17T10:00:36.849Z,14.03
2022-10-17T10:03:35.681Z,14.06
2022-10-17T10:06:13.083Z,14.10
2022-10-17T10:09:30.372Z,14.07
2022-10-17T10:11:59.105Z,14.20
2022-10-17T10:14:35.495Z,14.28
2022-10-17T10:17:04.482Z,14.34
2022-10-17T10:19:37.833Z,14.32
2022-10-17T10:22:16.630Z,14.32
2022-10-17T10:24:43.506Z,14.26
2022-10-17T10:27:18.707Z,14.25
2022-10-17T10:29:52.807Z,14.31
2022-10-17T10:32:27.306Z,14.34
2022-10-17T10:35:01.160Z,14.35
2022-10-17T10:37:33.974Z,14.26
2022-10-17T10:40:18.603Z,14.24
2022-10-17T10:42:51.340Z,14.23
2022-10-17T10:45:48.019Z,14.25
2022-10-17T10:48:24.144Z,14.53
2022-10-17T10:51:14.305Z,14.71
2022-10-17T10:54:21.349Z,14.78
2022-10-17T10:56:53.504Z,14.87
2022-10-17T10:59:26.235Z,14.99
2022-10-17T11:02:30.790Z,15.10
2022-10-17T11:04:57.349Z,15.25
2022-10-17T11:07:56.218Z,15.43
2022-10-17T11:10:32.992Z,15.44
2022-10-17T11:13:22.913Z,15.54
2022-10-17T11:16:12.525Z,15.52
2022-10-17T11:18:47.747Z,15.49
2022-10-17T11:21:25.566Z,15.25
2022-10-17T11:24:27.799Z,15.10
2022-10-17T11:27:00.013Z,14.95
2022-10-17T11:29:36.243Z,14.99
2022-10-17T11:32:15.546Z,14.91
2022-10-17T11:34:49.910Z,14.98
2022-10-17T11:37:21.953Z,14.97
2022-10-17T11:40:00.612Z,15.04
2022-10-17T11:42:41.419Z,15.02
2022-10-17T11:45:13.971Z,15.06
2022-10-17T11:48:12.487Z,15.05
2022-10-17T11:53:41.751Z,15.19
2022-10-17T11:56:11.503Z,15.29
2022-10-17T11:59:16.580Z,15.28
2022-10-17T12:01:57.838Z,15.35
2022-10-17T12:05:02.339Z,15.41
2022-10-17T12:07:55.448Z,15.46
2022-10-17T12:10:31.489Z,15.54
2022-10-17T12:13:18.187Z,15.52
2022-10-17T12:15:46.614Z,15.46
2022-10-17T12:18:17.413Z,15.52
2022-10-17T12:20:57.922Z,15.55
2022-10-17T12:23:32.329Z,15.58
2022-10-17T12:26:05.532Z,15.62
2022-10-17T12:28:42.494Z,15.66
2022-10-17T12:31:23.138Z,15.75
2022-10-17T12:33:52.636Z,15.70
2022-10-17T12:36:39.529Z,15.78
2022-10-17T12:39:46.763Z,15.78
2022-10-17T12:42:43.366Z,15.71
2022-10-17T12:45:51.443Z,15.74
2022-10-17T12:49:01.181Z,15.84
2022-10-17T12:51:37.882Z,15.86
2022-10-17T12:54:17.190Z,15.89
2022-10-17T12:56:46.799Z,15.96
2022-10-17T12:59:20.080Z,15.98
2022-10-17T13:01:50.888Z,16.00
2022-10-17T13:04:18.561Z,16.00
2022-10-17T13:06:48.208Z,16.00
2022-10-17T13:09:37.849Z,16.04
2022-10-17T13:12:12.173Z,16.10
2022-10-17T13:14:42.372Z,16.07
2022-10-17T13:17:43.820Z,16.03
2022-10-17T13:20:25.657Z,16.09
2022-10-17T13:22:57.315Z,16.08
2022-10-17T13:25:25.878Z,16.07
2022-10-17T13:28:04.918Z,16.08
2022-10-17T13:30:36.769Z,16.08
2022-10-17T13:33:14.735Z,16.08
2022-10-17T13:35:59.433Z,16.03
2022-10-17T13:38:32.430Z,16.02
2022-10-17T13:41:16.551Z,15.98
2022-10-17T13:43:47.112Z,15.96
2022-10-17T13:46:37.293Z,15.93
2022-10-17T13:49:13.009Z,15.85
2022-10-17T13:51:44.933Z,15.79
2022-10-17T13:54:40.358Z,15.77
2022-10-17T13:57:19.708Z,15.81
2022-10-17T13:59:50.340Z,15.74
2022-10-17T14:02:27.671Z,15.77
2022-10-17T14:05:24.926Z,15.77
2022-10-17T14:08:15.228Z,15.82
2022-10-17T14:10:44.753Z,15.83
2022-10-17T14:13:23.692Z,15.84
2022-10-17T14:15:51.255Z,15.79
2022-10-17T14:18:22.038Z,15.77
2022-10-17T14:21:34.003Z,15.73
2022-10-17T14:23:43.980Z,15.73
2022-10-17T14:26:22.133Z,15.71
2022-10-17T14:29:07.082Z,15.76
2022-10-17T14:31:35.908Z,15.75
2022-10-17T14:34:04.733Z,15.74
2022-10-17T14:36:44.293Z,15.68
2022-10-17T14:39:20.745Z,15.67
2022-10-17T14:41:48.370Z,15.68
2022-10-17T14:44:23.978Z,15.63
2022-10-17T14:46:59.279Z,15.65
2022-10-17T14:49:35.768Z,15.58
2022-10-17T14:52:39.019Z,15.50
2022-10-17T14:55:25.081Z,15.48
2022-10-17T14:57:51.859Z,15.46
2022-10-17T15:00:20.713Z,15.40
2022-10-17T15:02:48.306Z,15.36
2022-10-17T15:05:15.694Z,15.35
2022-10-17T15:07:42.822Z,15.32
2022-10-17T15:10:36.871Z,15.33
2022-10-17T15:13:26.561Z,15.28
2022-10-17T15:15:52.232Z,15.24
2022-10-17T15:18:19.397Z,15.22
2022-10-17T15:20:46.231Z,15.21
2022-10-17T15:23:12.878Z,15.22
2022-10-17T15:25:39.847Z,15.20
2022-10-17T15:28:06.452Z,15.19
2022-10-17T15:30:36.425Z,15.17
2022-10-17T15:33:03.565Z,15.16
2022-10-17T15:35:31.155Z,15.15
2022-10-17T15:37:57.820Z,15.11
2022-10-17T15:40:28.770Z,15.08
2022-10-17T15:42:56.381Z,15.03
2022-10-17T15:45:23.663Z,15.02
2022-10-17T15:47:53.303Z,15.03
2022-10-17T15:50:21.586Z,14.96
2022-10-17T15:52:51.079Z,14.90
2022-10-17T15:55:18.785Z,14.86
2022-10-17T15:57:47.276Z,14.83
2022-10-17T16:00:22.409Z,14.79
2022-10-17T16:02:49.992Z,14.76
2022-10-17T16:05:19.744Z,14.73
2022-10-17T16:07:46.848Z,14.69
2022-10-17T16:10:14.716Z,14.65
2022-10-17T16:12:41.386Z,14.60
2022-10-17T16:15:14.783Z,14.57
2022-10-17T16:17:41.518Z,14.54
2022-10-17T16:20:08.697Z,14.52
2022-10-17T16:22:38.073Z,14.44
2022-10-17T16:25:11.995Z,14.40
2022-10-17T16:27:39.338Z,14.37
2022-10-17T16:30:07.702Z,14.35
2022-10-17T16:32:34.376Z,14.32
2022-10-17T16:35:01.542Z,14.30
2022-10-17T16:37:28.346Z,14.27
2022-10-17T16:39:54.961Z,14.26
2022-10-17T16:42:21.903Z,14.22
2022-10-17T16:44:49.673Z,14.17
2022-10-17T16:47:17.932Z,14.12
2022-10-17T16:49:45.550Z,14.04
2022-10-17T16:52:12.938Z,13.99
2022-10-17T16:54:39.513Z,13.93
2022-10-17T16:57:06.218Z,13.89
2022-10-17T16:59:32.783Z,13.83
2022-10-17T17:01:59.408Z,13.79
2022-10-17T17:04:26.310Z,13.73
2022-10-17T17:06:52.956Z,13.68
2022-10-17T17:09:19.725Z,13.69
2022-10-17T17:11:46.367Z,13.68
2022-10-17T17:14:13.501Z,13.64
2022-10-17T17:16:40.332Z,13.64
2022-10-17T17:19:10.715Z,13.63
2022-10-17T17:21:52.881Z,13.61
2022-10-17T17:24:24.094Z,13.60
2022-10-17T17:26:55.199Z,13.57
2022-10-17T17:29:22.562Z,13.55
2022-10-17T17:31:49.853Z,13.51
2022-10-17T17:34:18.244Z,13.47
2022-10-17T17:36:45.368Z,13.45
2022-10-17T17:39:14.203Z,13.40
2022-10-17T17:41:42.166Z,13.35
2022-10-17T17:44:12.537Z,13.33
2022-10-17T17:46:43.632Z,13.32
2022-10-17T17:49:11.654Z,13.31
2022-10-17T17:51:38.822Z,13.29
2022-10-17T17:54:05.468Z,13.27
2022-10-17T17:56:32.347Z,13.23
2022-10-17T17:59:01.835Z,13.22
2022-10-17T18:01:31.403Z,13.20
2022-10-17T18:03:59.110Z,13.14
2022-10-17T18:06:26.772Z,13.09
2022-10-17T18:08:56.276Z,13.06
2022-10-17T18:11:22.866Z,13.06
2022-10-17T18:13:58.245Z,13.01
2022-10-17T18:16:26.443Z,12.98
2022-10-17T18:18:53.513Z,12.96
2022-10-17T18:21:20.486Z,12.95
2022-10-17T18:23:48.530Z,12.91
2022-10-17T18:26:15.692Z,12.88
2022-10-17T18:28:43.676Z,12.85
2022-10-17T18:31:13.117Z,12.81
2022-10-17T18:33:39.945Z,12.82
2022-10-17T18:36:10.103Z,12.80
2022-10-17T18:38:37.342Z,12.78
2022-10-17T18:41:16.701Z,12.75
2022-10-17T18:43:45.405Z,12.75
2022-10-17T18:46:17.329Z,12.76
2022-10-17T18:48:45.491Z,12.76
2022-10-17T18:51:13.843Z,12.79
2022-10-17T18:53:44.833Z,12.80
2022-10-17T18:56:12.541Z,12.80
2022-10-17T18:58:40.118Z,12.73
2022-10-17T19:01:16.016Z,12.68
2022-10-17T19:03:44.184Z,12.61
2022-10-17T19:06:12.663Z,12.56
2022-10-17T19:08:40.124Z,12.50
2022-10-17T19:11:18.747Z,12.46
2022-10-17T19:16:24.130Z,12.36
2022-10-17T19:18:52.813Z,12.37
2022-10-17T19:21:21.949Z,12.35
2022-10-17T19:24:00.150Z,12.37
2022-10-17T19:26:28.609Z,12.36
2022-10-17T19:28:55.591Z,12.37
2022-10-17T19:31:27.027Z,12.38
2022-10-17T19:33:55.526Z,12.39
2022-10-17T19:36:27.515Z,12.36
2022-10-17T19:38:57.906Z,12.37
2022-10-17T19:41:24.735Z,12.36
2022-10-17T19:43:54.237Z,12.32
2022-10-17T19:46:23.710Z,12.26
2022-10-17T19:48:51.023Z,12.25
2022-10-17T19:51:20.261Z,12.26
2022-10-17T19:53:47.728Z,12.26
2022-10-17T19:56:14.360Z,12.22
2022-10-17T19:58:45.334Z,12.20
2022-10-17T20:01:19.556Z,12.20
2022-10-17T20:03:46.867Z,12.18
2022-10-17T20:06:14.081Z,12.17
2022-10-17T20:08:41.230Z,12.20
2022-10-17T20:11:15.135Z,12.19
2022-10-17T20:13:42.302Z,12.15
2022-10-17T20:16:13.142Z,12.10
2022-10-17T20:18:40.868Z,12.04
2022-10-17T20:21:11.992Z,12.02
2022-10-17T20:23:38.967Z,11.94
2022-10-17T20:26:33.170Z,11.89
2022-10-17T20:28:55.845Z,11.88
2022-10-17T20:31:22.551Z,11.84
2022-10-17T20:33:54.585Z,11.81
2022-10-17T20:36:23.403Z,11.86
2022-10-17T20:38:54.986Z,11.87
2022-10-17T20:41:22.139Z,11.81
2022-10-17T20:43:51.742Z,11.84
2022-10-17T20:46:35.025Z,11.73
2022-10-17T20:49:02.593Z,11.66
2022-10-17T20:51:29.771Z,11.64
2022-10-17T20:56:30.161Z,11.60
2022-10-17T20:59:02.596Z,11.61
2022-10-17T21:01:29.874Z,11.61
2022-10-17T21:03:59.677Z,11.55
2022-10-17T21:06:29.221Z,11.57
2022-10-17T21:08:56.985Z,11.54
2022-10-17T21:11:27.581Z,11.54
2022-10-17T21:13:59.703Z,11.59
2022-10-17T21:16:27.703Z,11.61
2022-10-17T21:18:55.368Z,11.65
2022-10-17T21:21:43.295Z,11.61
2022-10-17T21:24:14.183Z,11.59
2022-10-17T21:26:42.432Z,11.61
2022-10-17T21:29:09.990Z,11.54
2022-10-17T21:31:38.826Z,11.48
2022-10-17T21:34:11.659Z,11.40
2022-10-17T21:36:38.707Z,11.35
2022-10-17T21:39:05.551Z,11.33
2022-10-17T21:41:32.520Z,11.32
2022-10-17T21:44:05.392Z,11.36
2022-10-17T21:46:32.809Z,11.33
2022-10-17T21:49:00.708Z,11.22
2022-10-17T21:51:27.853Z,11.22
2022-10-17T21:53:56.005Z,11.25
2022-10-17T21:56:30.664Z,11.24
2022-10-17T21:58:58.274Z,11.24
2022-10-17T22:01:31.795Z,11.31
2022-10-17T22:04:01.308Z,11.27
2022-10-17T22:06:39.863Z,11.26
2022-10-17T22:09:13.346Z,11.25
2022-10-17T22:11:40.839Z,11.23
2022-10-17T22:14:11.266Z,11.22
2022-10-17T22:16:38.533Z,11.22
2022-10-17T22:19:06.787Z,11.26
2022-10-17T22:21:35.329Z,11.28
2022-10-17T22:24:04.857Z,11.39
2022-10-17T22:26:33.247Z,11.36
2022-10-17T22:28:59.979Z,11.28
2022-10-17T22:31:26.711Z,11.27
2022-10-17T22:33:53.489Z,11.22
2022-10-17T22:36:20.277Z,11.20
2022-10-17T22:38:47.038Z,11.17
2022-10-17T22:41:13.637Z,11.23
2022-10-17T22:43:40.227Z,11.25
2022-10-17T22:46:07.505Z,11.25
2022-10-17T22:48:34.531Z,11.20
2022-10-17T22:51:02.125Z,11.13
2022-10-17T22:53:29.862Z,11.08
2022-10-17T22:56:01.408Z,11.08
2022-10-17T22:58:29.951Z,11.06
2022-10-17T23:00:57.220Z,11.05
2022-10-17T23:03:26.585Z,11.11
2022-10-17T23:05:53.909Z,11.11
2022-10-17T23:08:21.038Z,11.09
2022-10-17T23:10:48.299Z,11.01
2022-10-17T23:13:16.023Z,10.97
2022-10-17T23:15:43.314Z,10.96
2022-10-17T23:18:10.242Z,10.93
2022-10-17T23:20:37.728Z,10.92
2022-10-17T23:23:04.762Z,10.87
2022-10-17T23:25:34.375Z,10.88
2022-10-17T23:28:01.567Z,10.92
2022-10-17T23:30:28.551Z,10.93
2022-10-17T23:32:55.116Z,10.95
2022-10-17T23:35:21.911Z,11.00
2022-10-17T23:37:48.772Z,10.99
2022-10-17T23:40:15.534Z,10.91
2022-10-17T23:42:42.127Z,11.00
2022-10-17T23:45:09.572Z,10.99
2022-10-17T23:47:36.384Z,10.95
2022-10-17T23:50:04.042Z,10.87
2022-10-17T23:52:30.889Z,10.79
2022-10-17T23:54:57.457Z,10.77
2022-10-17T23:57:24.031Z,10.75
2022-10-17T23:59:50.849Z,10.75
